createdAt,value
2019-01-25T00:00:15.362Z,79.13
2019-01-25T00:02:45.070Z,71.27
2019-01-25T00:05:13.718Z,80.83
2019-01-25T00:07:42.287Z,84.27
2019-01-25T00:10:11.118Z,79.50
2019-01-25T00:12:39.681Z,74.77
2019-01-25T00:15:11.273Z,80.43
2019-01-25T00:17:39.848Z,72.23
2019-01-25T00:20:13.020Z,75.83
2019-01-25T00:22:41.731Z,80.37
2019-01-25T00:25:10.786Z,84.37
2019-01-25T00:27:39.349Z,81.70
2019-01-25T00:30:15.551Z,86.03
2019-01-25T00:32:44.053Z,77.13
2019-01-25T00:35:12.715Z,78.80
2019-01-25T00:37:41.281Z,74.90
2019-01-25T00:40:18.184Z,80.70
2019-01-25T00:42:47.786Z,81.27
2019-01-25T00:45:17.931Z,81.83
2019-01-25T00:47:46.492Z,81.63
2019-01-25T00:50:21.994Z,81.87
2019-01-25T00:52:51.182Z,78.27
2019-01-25T00:55:20.628Z,75.60
2019-01-25T00:57:49.138Z,77.00
2019-01-25T01:00:25.873Z,79.60
2019-01-25T01:02:54.616Z,84.37
2019-01-25T01:05:23.748Z,77.53
2019-01-25T01:07:52.460Z,78.07
2019-01-25T01:10:21.593Z,85.97
2019-01-25T01:12:51.203Z,77.83
2019-01-25T01:15:20.204Z,71.63
2019-01-25T01:17:50.048Z,74.90
2019-01-25T01:20:20.082Z,79.20
2019-01-25T01:22:49.416Z,77.70
2019-01-25T01:25:18.191Z,80.03
2019-01-25T01:27:46.855Z,81.43
2019-01-25T01:30:18.571Z,81.83
2019-01-25T01:32:47.231Z,72.70
2019-01-25T01:35:15.868Z,76.40
2019-01-25T01:37:44.693Z,74.67
2019-01-25T01:40:22.213Z,76.23
2019-01-25T01:42:49.255Z,81.40
2019-01-25T01:45:18.369Z,82.33
2019-01-25T01:47:47.298Z,79.87
2019-01-25T01:50:17.534Z,88.73
2019-01-25T01:52:46.858Z,84.07
2019-01-25T01:55:15.500Z,75.37
2019-01-25T01:57:44.168Z,79.47
2019-01-25T02:00:15.977Z,81.57
2019-01-25T02:02:44.578Z,78.70
2019-01-25T02:05:13.232Z,83.33
2019-01-25T02:07:41.815Z,79.23
2019-01-25T02:10:16.277Z,80.97
2019-01-25T02:12:44.917Z,74.57
2019-01-25T02:15:15.897Z,86.13
2019-01-25T02:17:44.618Z,77.47
2019-01-25T02:20:16.546Z,85.60
2019-01-25T02:22:45.630Z,78.37
2019-01-25T02:25:14.939Z,86.03
2019-01-25T02:27:44.049Z,81.97
2019-01-25T02:30:15.563Z,75.53
2019-01-25T02:32:44.157Z,80.47
2019-01-25T02:35:12.858Z,85.43
2019-01-25T02:37:42.617Z,82.27
2019-01-25T02:40:14.184Z,78.87
2019-01-25T02:42:42.865Z,77.93
2019-01-25T02:45:12.979Z,81.17
2019-01-25T02:47:41.704Z,82.60
2019-01-25T02:50:16.682Z,83.63
2019-01-25T02:52:45.439Z,85.40
2019-01-25T02:55:15.354Z,82.70
2019-01-25T02:57:44.018Z,80.73
2019-01-25T03:00:18.515Z,76.10
2019-01-25T03:02:49.015Z,75.70
2019-01-25T03:05:19.021Z,83.37
2019-01-25T03:07:50.562Z,77.90
2019-01-25T03:10:28.246Z,79.20
2019-01-25T03:12:51.400Z,79.13
2019-01-25T03:15:25.270Z,82.63
2019-01-25T03:17:54.295Z,85.53
2019-01-25T03:20:23.724Z,82.87
2019-01-25T03:22:52.449Z,76.43
2019-01-25T03:25:23.271Z,79.37
2019-01-25T03:27:52.964Z,76.40
2019-01-25T03:30:25.771Z,80.60
2019-01-25T03:32:54.497Z,88.47
2019-01-25T03:35:24.729Z,83.33
2019-01-25T03:37:53.837Z,78.23
2019-01-25T03:40:26.989Z,73.80
2019-01-25T03:42:55.564Z,74.40
2019-01-25T03:45:24.685Z,85.87
2019-01-25T03:47:53.313Z,77.07
2019-01-25T03:50:27.589Z,86.57
2019-01-25T03:52:56.293Z,76.87
2019-01-25T03:55:25.461Z,78.97
2019-01-25T03:57:54.089Z,80.83
2019-01-25T04:00:28.694Z,79.70
2019-01-25T04:02:57.596Z,78.53
2019-01-25T04:05:26.267Z,83.70
2019-01-25T04:07:54.910Z,81.80
2019-01-25T04:10:26.337Z,80.83
2019-01-25T04:12:55.074Z,86.80
2019-01-25T04:15:26.904Z,71.87
2019-01-25T04:17:56.246Z,77.67
2019-01-25T04:20:24.903Z,79.10
2019-01-25T04:22:53.632Z,88.63
2019-01-25T04:25:24.158Z,82.83
2019-01-25T04:27:53.278Z,87.07
2019-01-25T04:30:27.276Z,77.20
2019-01-25T04:32:57.054Z,82.23
2019-01-25T04:35:25.763Z,83.37
2019-01-25T04:37:54.476Z,80.20
2019-01-25T04:40:23.227Z,77.80
2019-01-25T04:42:52.415Z,83.57
2019-01-25T04:45:22.902Z,81.40
2019-01-25T04:47:51.657Z,88.53
2019-01-25T04:50:24.859Z,88.57
2019-01-25T04:52:53.781Z,81.93
2019-01-25T04:55:27.808Z,84.20
2019-01-25T04:58:05.054Z,84.40
2019-01-25T05:00:33.775Z,80.00
2019-01-25T05:03:02.567Z,81.13
2019-01-25T05:05:31.319Z,83.27
2019-01-25T05:08:07.046Z,75.73
2019-01-25T05:10:35.759Z,82.17
2019-01-25T05:13:04.769Z,86.10
2019-01-25T05:15:33.473Z,84.80
2019-01-25T05:18:03.190Z,81.83
2019-01-25T05:20:31.780Z,85.63
2019-01-25T05:23:02.902Z,81.40
2019-01-25T05:25:31.551Z,91.27
2019-01-25T05:28:09.818Z,82.57
2019-01-25T05:30:38.566Z,85.20
2019-01-25T05:33:07.145Z,82.47
2019-01-25T05:35:37.183Z,77.60
2019-01-25T05:38:05.827Z,82.50
2019-01-25T05:40:34.486Z,81.17
2019-01-25T05:43:02.981Z,82.57
2019-01-25T05:45:32.982Z,84.23
2019-01-25T05:48:01.700Z,84.23
2019-01-25T05:50:30.574Z,79.93
2019-01-25T05:52:59.282Z,85.17
2019-01-25T05:55:27.799Z,79.03
2019-01-25T05:58:02.557Z,81.83
2019-01-25T06:00:33.006Z,80.70
2019-01-25T06:03:12.028Z,87.70
2019-01-25T06:05:41.249Z,92.87
2019-01-25T06:08:13.985Z,84.47
2019-01-25T06:10:42.678Z,88.57
2019-01-25T06:13:11.411Z,79.07
2019-01-25T06:15:40.339Z,84.67
2019-01-25T06:18:10.174Z,88.30
2019-01-25T06:20:38.749Z,89.77
2019-01-25T06:23:07.303Z,89.77
2019-01-25T06:25:35.882Z,85.53
2019-01-25T06:28:06.283Z,92.17
2019-01-25T06:30:34.985Z,92.83
2019-01-25T06:33:03.794Z,102.50
2019-01-25T06:35:34.122Z,89.53
2019-01-25T06:38:03.034Z,85.03
2019-01-25T06:40:34.371Z,85.53
2019-01-25T06:43:04.611Z,87.40
2019-01-25T06:45:34.401Z,94.20
2019-01-25T06:48:03.885Z,85.07
2019-01-25T06:50:32.564Z,87.40
2019-01-25T06:53:01.106Z,81.17
2019-01-25T06:55:29.680Z,79.23
2019-01-25T06:57:59.914Z,88.97
2019-01-25T07:00:30.178Z,82.87
2019-01-25T07:02:58.964Z,78.37
2019-01-25T07:05:27.525Z,81.37
2019-01-25T07:07:56.129Z,79.77
2019-01-25T07:10:24.997Z,78.10
2019-01-25T07:12:53.798Z,84.13
2019-01-25T07:15:24.075Z,76.90
2019-01-25T07:17:52.721Z,73.60
2019-01-25T07:20:21.593Z,74.70
2019-01-25T07:22:50.152Z,80.43
2019-01-25T07:25:21.333Z,71.13
2019-01-25T07:27:49.835Z,73.70
2019-01-25T07:30:18.353Z,81.97
2019-01-25T07:32:47.228Z,71.20
2019-01-25T07:35:15.827Z,74.53
2019-01-25T07:37:44.378Z,76.57
2019-01-25T07:40:13.052Z,72.97
2019-01-25T07:42:41.629Z,75.77
2019-01-25T07:45:12.154Z,73.63
2019-01-25T07:47:40.733Z,71.47
2019-01-25T07:50:11.719Z,73.80
2019-01-25T07:52:40.391Z,69.43
2019-01-25T07:55:10.929Z,69.20
2019-01-25T07:57:40.135Z,69.50
2019-01-25T08:00:14.532Z,65.97
2019-01-25T08:02:43.150Z,61.43
2019-01-25T08:05:11.909Z,65.77
2019-01-25T08:07:41.769Z,67.87
2019-01-25T08:10:13.725Z,59.60
2019-01-25T08:12:42.399Z,66.73
2019-01-25T08:15:26.062Z,59.97
2019-01-25T08:17:55.637Z,61.27
2019-01-25T08:20:25.059Z,65.73
2019-01-25T08:22:53.708Z,61.87
2019-01-25T08:25:22.325Z,57.17
2019-01-25T08:27:50.901Z,63.47
2019-01-25T08:30:24.561Z,61.80
2019-01-25T08:32:53.244Z,55.73
2019-01-25T08:35:22.105Z,55.90
2019-01-25T08:37:50.697Z,55.87
2019-01-25T08:40:19.349Z,58.80
2019-01-25T08:42:47.937Z,64.93
2019-01-25T08:45:18.301Z,59.57
2019-01-25T08:47:46.996Z,53.63
2019-01-25T08:50:21.357Z,55.47
2019-01-25T08:52:49.937Z,58.00
2019-01-25T08:55:18.574Z,77.27
2019-01-25T08:57:47.199Z,58.20
2019-01-25T09:00:19.046Z,53.27
2019-01-25T09:02:47.575Z,49.00
2019-01-25T09:05:17.088Z,53.67
2019-01-25T09:07:45.674Z,56.03
2019-01-25T09:10:16.310Z,49.57
2019-01-25T09:12:44.980Z,44.47
2019-01-25T09:15:28.562Z,46.47
2019-01-25T09:17:58.279Z,48.80
2019-01-25T09:20:26.913Z,48.53
2019-01-25T09:22:55.503Z,43.87
2019-01-25T09:25:24.076Z,49.47
2019-01-25T09:27:52.657Z,49.70
2019-01-25T09:30:24.921Z,45.83
2019-01-25T09:32:53.447Z,50.20
2019-01-25T09:35:22.256Z,44.20
2019-01-25T09:37:51.014Z,45.83
2019-01-25T09:40:22.530Z,45.33
2019-01-25T09:42:51.457Z,48.80
2019-01-25T09:45:20.364Z,44.43
2019-01-25T09:47:49.082Z,46.37
2019-01-25T09:50:22.018Z,49.70
2019-01-25T09:52:50.928Z,49.83
2019-01-25T09:55:24.266Z,47.13
2019-01-25T09:57:53.913Z,50.43
2019-01-25T10:00:25.559Z,51.67
2019-01-25T10:02:54.125Z,51.47
2019-01-25T10:05:22.847Z,51.90
2019-01-25T10:07:51.437Z,53.77
2019-01-25T10:10:21.285Z,49.67
2019-01-25T10:12:49.925Z,45.33
2019-01-25T10:15:28.977Z,48.00
2019-01-25T10:17:57.718Z,44.77
2019-01-25T10:20:26.546Z,49.27
2019-01-25T10:22:55.179Z,43.97
2019-01-25T10:25:23.769Z,44.30
2019-01-25T10:27:52.343Z,57.97
2019-01-25T10:30:24.108Z,46.40
2019-01-25T10:32:52.606Z,48.33
2019-01-25T10:35:21.565Z,48.03
2019-01-25T10:37:50.606Z,49.60
2019-01-25T10:40:21.313Z,51.63
2019-01-25T10:42:53.360Z,52.33
2019-01-25T10:45:29.090Z,47.30
2019-01-25T10:47:57.737Z,51.63
2019-01-25T10:50:26.249Z,53.20
2019-01-25T10:52:54.747Z,53.17
2019-01-25T10:55:23.411Z,50.77
2019-01-25T10:57:51.984Z,50.87
2019-01-25T11:00:22.836Z,54.83
2019-01-25T11:02:57.860Z,48.53
2019-01-25T11:05:24.709Z,55.17
2019-01-25T11:07:53.290Z,51.70
2019-01-25T11:10:21.931Z,51.93
2019-01-25T11:12:50.529Z,53.07
2019-01-25T11:15:21.705Z,47.70
2019-01-25T11:17:51.794Z,47.27
2019-01-25T11:20:25.174Z,55.40
2019-01-25T11:22:54.276Z,53.20
2019-01-25T11:25:37.471Z,51.03
2019-01-25T11:28:06.050Z,52.50
2019-01-25T11:30:34.690Z,47.10
2019-01-25T11:33:03.531Z,49.87
2019-01-25T11:35:32.181Z,48.57
2019-01-25T11:38:00.839Z,50.40
2019-01-25T11:40:38.193Z,48.27
2019-01-25T11:43:08.811Z,50.63
2019-01-25T11:45:37.230Z,53.60
2019-01-25T11:48:09.055Z,50.17
2019-01-25T11:50:37.633Z,58.90
2019-01-25T11:53:06.221Z,60.50
2019-01-25T11:55:34.885Z,59.97
2019-01-25T11:58:03.550Z,56.37
2019-01-25T12:00:32.793Z,58.00
2019-01-25T12:03:01.306Z,64.63
2019-01-25T12:05:29.885Z,56.60
2019-01-25T12:07:58.543Z,64.80
2019-01-25T12:10:29.733Z,57.97
2019-01-25T12:12:58.245Z,59.90
2019-01-25T12:15:26.894Z,66.30
2019-01-25T12:17:55.414Z,64.47
2019-01-25T12:20:28.954Z,68.43
2019-01-25T12:22:57.614Z,69.93
2019-01-25T12:25:26.125Z,75.70
2019-01-25T12:27:54.951Z,86.83
2019-01-25T12:30:37.841Z,77.83
2019-01-25T12:33:04.241Z,77.10
2019-01-25T12:35:37.767Z,84.03
2019-01-25T12:38:06.505Z,83.77
2019-01-25T12:40:35.081Z,86.47
2019-01-25T12:43:04.228Z,90.60
2019-01-25T12:45:33.426Z,87.93
2019-01-25T12:48:02.091Z,84.10
2019-01-25T12:50:33.972Z,88.00
2019-01-25T12:53:05.010Z,83.53
2019-01-25T12:55:33.596Z,98.17
2019-01-25T12:58:03.998Z,102.93
2019-01-25T13:00:32.715Z,108.60
2019-01-25T13:03:01.434Z,98.47
2019-01-25T13:05:30.159Z,106.50
2019-01-25T13:07:58.749Z,101.33
2019-01-25T13:10:28.123Z,114.40
2019-01-25T13:12:56.779Z,105.53
2019-01-25T13:15:25.290Z,122.60
2019-01-25T13:17:54.583Z,115.27
2019-01-25T13:20:34.046Z,121.57
2019-01-25T13:23:02.745Z,123.30
2019-01-25T13:25:31.386Z,122.70
2019-01-25T13:28:00.056Z,129.07
2019-01-25T13:30:30.563Z,137.47
2019-01-25T13:33:00.327Z,133.30
2019-01-25T13:35:28.995Z,152.50
2019-01-25T13:37:57.561Z,138.70
2019-01-25T13:40:27.351Z,148.33
2019-01-25T13:42:56.074Z,147.90
2019-01-25T13:45:24.984Z,145.87
2019-01-25T13:47:53.900Z,152.63
2019-01-25T13:50:29.357Z,152.00
2019-01-25T13:52:57.935Z,163.37
2019-01-25T13:55:26.877Z,157.90
2019-01-25T13:57:55.441Z,160.33
2019-01-25T14:00:32.129Z,156.10
2019-01-25T14:03:02.481Z,159.87
2019-01-25T14:05:31.414Z,147.93
2019-01-25T14:07:59.904Z,161.80
2019-01-25T14:10:33.634Z,148.77
2019-01-25T14:13:02.351Z,163.07
2019-01-25T14:15:31.094Z,164.80
2019-01-25T14:17:59.670Z,163.17
2019-01-25T14:20:32.599Z,163.67
2019-01-25T14:23:01.172Z,174.13
2019-01-25T14:25:29.822Z,162.23
2019-01-25T14:27:58.392Z,170.57
2019-01-25T14:30:37.855Z,163.90
2019-01-25T14:33:06.974Z,169.87
2019-01-25T14:35:35.713Z,151.03
2019-01-25T14:38:04.983Z,166.50
2019-01-25T14:40:33.615Z,167.53
2019-01-25T14:43:02.130Z,144.73
2019-01-25T14:45:30.837Z,148.50
2019-01-25T14:47:59.425Z,156.33
2019-01-25T14:50:32.149Z,138.73
2019-01-25T14:53:00.810Z,125.60
2019-01-25T14:55:29.526Z,139.57
2019-01-25T14:57:58.114Z,123.93
2019-01-25T15:00:26.686Z,139.23
2019-01-25T15:02:55.322Z,122.17
2019-01-25T15:05:23.846Z,134.03
2019-01-25T15:07:52.437Z,136.07
2019-01-25T15:10:23.241Z,119.47
2019-01-25T15:12:54.785Z,125.07
2019-01-25T15:15:23.454Z,127.10
2019-01-25T15:17:53.326Z,124.20
2019-01-25T15:20:24.141Z,116.63
2019-01-25T15:22:52.730Z,113.47
2019-01-25T15:25:21.375Z,112.37
2019-01-25T15:27:49.966Z,103.80
2019-01-25T15:30:27.207Z,103.63
2019-01-25T15:32:55.807Z,96.27
2019-01-25T15:35:24.626Z,96.87
2019-01-25T15:37:53.218Z,89.90
2019-01-25T15:40:22.536Z,78.03
2019-01-25T15:42:51.201Z,81.13
2019-01-25T15:45:21.212Z,81.60
2019-01-25T15:47:49.878Z,77.03
2019-01-25T15:50:24.335Z,77.07
2019-01-25T15:52:54.527Z,72.77
2019-01-25T15:55:23.735Z,66.30
2019-01-25T15:57:52.410Z,68.53
2019-01-25T16:00:27.824Z,66.97
2019-01-25T16:02:57.956Z,62.57
2019-01-25T16:05:29.138Z,65.77
2019-01-25T16:07:57.723Z,73.13
2019-01-25T16:10:26.453Z,73.40
2019-01-25T16:12:54.977Z,63.87
2019-01-25T16:15:28.315Z,68.03
2019-01-25T16:17:57.482Z,84.80
2019-01-25T16:20:26.231Z,74.10
2019-01-25T16:22:56.841Z,74.17
2019-01-25T16:25:27.481Z,69.80
2019-01-25T16:27:58.865Z,75.00
2019-01-25T16:30:33.005Z,67.13
2019-01-25T16:33:01.594Z,73.53
2019-01-25T16:35:30.567Z,64.90
2019-01-25T16:38:00.995Z,68.90
2019-01-25T16:40:30.523Z,64.37
2019-01-25T16:42:59.111Z,59.60
2019-01-25T16:45:33.628Z,62.60
2019-01-25T16:48:02.230Z,57.33
2019-01-25T16:50:30.798Z,61.40
2019-01-25T16:52:59.451Z,58.43
2019-01-25T16:55:28.087Z,61.90
2019-01-25T16:57:56.681Z,55.80
2019-01-25T17:00:30.733Z,58.23
2019-01-25T17:02:59.382Z,56.20
2019-01-25T17:05:28.099Z,54.80
2019-01-25T17:07:56.762Z,60.27
2019-01-25T17:10:25.406Z,58.17
2019-01-25T17:12:54.748Z,62.10
2019-01-25T17:15:23.460Z,66.43
2019-01-25T17:17:52.063Z,55.40
2019-01-25T17:20:25.766Z,61.27
2019-01-25T17:22:54.363Z,58.57
2019-01-25T17:25:23.702Z,53.83
2019-01-25T17:27:52.303Z,55.47
2019-01-25T17:30:29.405Z,54.30
2019-01-25T17:32:59.558Z,55.27
2019-01-25T17:35:28.469Z,60.30
2019-01-25T17:37:58.497Z,63.43
2019-01-25T17:40:32.542Z,59.73
2019-01-25T17:43:01.202Z,58.77
2019-01-25T17:45:29.842Z,59.33
2019-01-25T17:47:58.567Z,60.33
2019-01-25T17:50:27.139Z,56.47
2019-01-25T17:52:55.801Z,58.03
2019-01-25T17:55:24.444Z,49.97
2019-01-25T17:57:53.171Z,52.63
2019-01-25T18:00:34.479Z,51.70
2019-01-25T18:03:03.059Z,53.23
2019-01-25T18:05:31.626Z,48.53
2019-01-25T18:08:00.172Z,51.17
2019-01-25T18:10:28.801Z,50.23
2019-01-25T18:12:57.313Z,48.77
2019-01-25T18:15:25.962Z,52.80
2019-01-25T18:17:55.576Z,54.03
2019-01-25T18:20:24.776Z,48.73
2019-01-25T18:22:53.606Z,49.93
2019-01-25T18:25:25.241Z,51.57
2019-01-25T18:28:02.384Z,44.93
2019-01-25T18:30:34.023Z,42.90
2019-01-25T18:33:02.609Z,53.87
2019-01-25T18:35:31.172Z,44.37
2019-01-25T18:37:59.778Z,44.97
2019-01-25T18:40:28.350Z,44.57
2019-01-25T18:42:56.925Z,43.37
2019-01-25T18:45:25.425Z,47.20
2019-01-25T18:47:54.006Z,41.37
2019-01-25T18:50:22.567Z,34.83
2019-01-25T18:52:51.158Z,35.27
2019-01-25T18:55:22.550Z,37.10
2019-01-25T18:57:51.214Z,38.27
2019-01-25T19:00:21.344Z,41.33
2019-01-25T19:02:49.901Z,39.83
2019-01-25T19:05:18.481Z,49.67
2019-01-25T19:07:46.965Z,40.87
2019-01-25T19:10:21.181Z,35.67
2019-01-25T19:12:55.086Z,38.90
2019-01-25T19:15:31.010Z,37.37
2019-01-25T19:17:59.918Z,36.60
2019-01-25T19:20:28.573Z,36.83
2019-01-25T19:22:57.235Z,38.00
2019-01-25T19:25:25.889Z,37.37
2019-01-25T19:27:54.459Z,39.33
2019-01-25T19:30:31.383Z,40.80
2019-01-25T19:33:00.862Z,39.83
2019-01-25T19:35:31.378Z,40.67
2019-01-25T19:38:00.179Z,39.33
2019-01-25T19:40:33.662Z,39.03
2019-01-25T19:43:02.358Z,41.33
2019-01-25T19:45:30.949Z,41.97
2019-01-25T19:47:59.580Z,43.47
2019-01-25T19:50:28.261Z,44.53
2019-01-25T19:52:56.891Z,48.83
2019-01-25T19:55:31.507Z,42.33
2019-01-25T19:58:03.362Z,46.20
2019-01-25T20:00:37.167Z,47.47
2019-01-25T20:03:06.470Z,54.40
2019-01-25T20:05:35.054Z,49.67
2019-01-25T20:08:04.989Z,48.83
2019-01-25T20:10:33.666Z,49.80
2019-01-25T20:13:02.160Z,49.93
2019-01-25T20:15:30.742Z,48.90
2019-01-25T20:17:59.382Z,49.87
2019-01-25T20:20:33.670Z,44.77
2019-01-25T20:23:02.173Z,47.00
2019-01-25T20:25:30.745Z,49.93
2019-01-25T20:28:01.120Z,45.00
2019-01-25T20:30:33.802Z,49.30
2019-01-25T20:33:04.040Z,43.90
2019-01-25T20:35:37.978Z,41.00
2019-01-25T20:38:06.673Z,46.23
2019-01-25T20:40:35.262Z,43.57
2019-01-25T20:43:04.402Z,43.17
2019-01-25T20:45:35.455Z,45.50
2019-01-25T20:48:04.267Z,45.47
2019-01-25T20:50:34.595Z,43.77
2019-01-25T20:53:03.297Z,41.50
2019-01-25T20:55:31.966Z,41.40
2019-01-25T20:58:00.536Z,43.07
2019-01-25T21:00:31.574Z,41.20
2019-01-25T21:03:00.382Z,39.07
2019-01-25T21:05:29.039Z,38.80
2019-01-25T21:07:57.743Z,40.63
2019-01-25T21:10:26.683Z,37.07
2019-01-25T21:12:55.406Z,40.20
2019-01-25T21:15:26.022Z,36.33
2019-01-25T21:17:54.849Z,33.77
2019-01-25T21:20:26.282Z,34.07
2019-01-25T21:22:54.846Z,36.43
2019-01-25T21:25:23.502Z,33.30
2019-01-25T21:27:52.258Z,33.63
2019-01-25T21:30:28.941Z,32.23
2019-01-25T21:32:57.439Z,30.50
2019-01-25T21:35:26.266Z,29.03
2019-01-25T21:37:54.758Z,29.57
2019-01-25T21:40:28.868Z,33.20
2019-01-25T21:42:58.272Z,25.30
2019-01-25T21:45:29.545Z,31.00
2019-01-25T21:47:58.773Z,35.17
2019-01-25T21:50:30.418Z,31.53
2019-01-25T21:52:58.987Z,31.10
2019-01-25T21:55:27.580Z,30.17
2019-01-25T21:57:56.136Z,30.73
2019-01-25T22:00:27.373Z,29.17
2019-01-25T22:02:55.933Z,31.10
2019-01-25T22:05:24.699Z,29.57
2019-01-25T22:07:53.255Z,29.43
2019-01-25T22:10:24.322Z,28.63
2019-01-25T22:12:52.904Z,28.30
2019-01-25T22:15:21.563Z,28.90
2019-01-25T22:17:50.270Z,28.10
2019-01-25T22:20:20.844Z,26.50
2019-01-25T22:22:49.483Z,27.23
2019-01-25T22:25:18.212Z,26.87
2019-01-25T22:27:48.512Z,25.90
2019-01-25T22:30:19.375Z,26.57
2019-01-25T22:32:48.085Z,28.73
2019-01-25T22:35:16.815Z,26.30
2019-01-25T22:37:45.449Z,25.00
2019-01-25T22:40:19.161Z,25.30
2019-01-25T22:42:47.870Z,22.60
2019-01-25T22:45:18.740Z,27.03
2019-01-25T22:47:47.240Z,24.70
2019-01-25T22:50:18.567Z,23.93
2019-01-25T22:52:47.127Z,25.00
2019-01-25T22:55:17.556Z,24.00
2019-01-25T22:57:46.191Z,22.60
2019-01-25T23:00:25.313Z,23.07
2019-01-25T23:02:53.871Z,22.00
2019-01-25T23:05:40.347Z,24.03
2019-01-25T23:08:08.905Z,24.30
2019-01-25T23:10:37.495Z,27.67
2019-01-25T23:13:06.131Z,26.63
2019-01-25T23:15:34.717Z,26.93
2019-01-25T23:18:03.209Z,27.17
2019-01-25T23:20:31.789Z,25.17
2019-01-25T23:23:00.365Z,27.23
2019-01-25T23:25:28.891Z,27.00
2019-01-25T23:27:57.446Z,25.17
2019-01-25T23:30:26.401Z,26.97
2019-01-25T23:32:54.986Z,28.13
2019-01-25T23:35:24.113Z,31.07
2019-01-25T23:37:54.174Z,27.20
2019-01-25T23:40:22.733Z,28.23
2019-01-25T23:42:51.244Z,28.87
2019-01-25T23:45:19.875Z,29.73
2019-01-25T23:47:48.468Z,27.10
2019-01-25T23:50:17.270Z,27.43
2019-01-25T23:52:45.782Z,30.10
2019-01-25T23:55:14.470Z,27.00
2019-01-25T23:57:43.036Z,25.83
